Hackleburg, Alabama
Current Conditions -  °F | °C
As of 9:53 AM on Wednesday 28 Jan 2015 (Local Time) from KMSL Reporting Station
Clear Clear  
Wind Chill: 33°   Ceiling: Unl
Heat Index: 40°   Visibility: 10mi
Dew Point: 29°   Wind: 10mph
Humidity: 65%   Direction: 90°E
Pressure: 30.34"   Gusts: NA
Location:  34.28°N, 87.83°W
Report Text: KMSL 281553Z AUTO 09009KT 10SM CLR 04/M02 A3034 RMK AO2 SLP275 T00441017
Loading
Personal Weather Stations






























Interactive Weather Map New forecast layout! Learn more

10-Day Weather Forecast

Advertisements
Track Severe Weather on mobile